ADDS METAR Data INFO
IDs: Format: Raw Decoded Include TAF

Data at: 1059 UTC 18 Aug 2017

KPSN 181055Z AUTO 16004KT 10SM CLR 25/22 A3001 RMK AO2 T02490227
KPSN 181035Z AUTO 17003KT 10SM CLR 25/22 A3001 RMK AO2 T02500226
KPSN 181015Z AUTO 16005KT 10SM CLR 25/22 A3000 RMK AO2 T02510225
KPSN 180955Z AUTO 16003KT 10SM CLR 25/22 A3001 RMK AO2 T02520225
KPSN 180935Z AUTO 16004KT 10SM CLR 25/22 A3001 RMK AO2 T02550225
KPSN 180915Z AUTO 16003KT 10SM CLR 26/22 A3001 RMK AO2 T02590226
KPSN 180855Z AUTO 16004KT 10SM CLR 26/22 A3001 RMK AO2 T02610226
KPSN 180835Z AUTO 18003KT 10SM CLR 26/22 A3001 RMK AO2 T02620227
KPSN 180815Z AUTO 16003KT 10SM CLR 26/22 A3001 RMK AO2 T02650229
KPSN 180755Z AUTO 19003KT 10SM CLR 27/22 A3001 RMK AO2 T02700228
KPSN 180735Z AUTO 19004KT 10SM CLR 27/22 A3000 RMK AO2 T02730230
KPSN 180715Z AUTO 18007KT 10SM CLR 27/23 A3000 RMK AO2 T02750230
KPSN 180655Z AUTO 16007KT 10SM CLR 27/23 A3000 RMK AO2 T02770232
KPSN 180635Z AUTO 16004KT 10SM CLR 27/24 A3000 RMK AO2 T02720242
KPSN 180615Z AUTO 14005KT 10SM CLR 27/25 A3001 RMK AO2 T02700248
KPSN 180555Z AUTO 14003KT 10SM CLR 26/25 A3000 RMK AO2 T02680252
KPSN 180535Z AUTO 14003KT 10SM CLR 26/25 A3000 RMK AO2 T02670252
KPSN 180515Z AUTO 13003KT 10SM CLR 26/25 A3001 RMK AO2 T02680251
KPSN 180455Z AUTO 00000KT 10SM CLR 27/25 A3001 RMK AO2 T02730253
KPSN 180435Z AUTO 00000KT 10SM CLR 27/25 A3001 RMK AO2 T02720253
KPSN 180415Z AUTO 00000KT 10SM SCT060 27/25 A3001 RMK AO2 T02770255
KPSN 180355Z AUTO 00000KT 10SM SCT060 27/25 A3001 RMK AO2 T02770255
KPSN 180335Z AUTO 12003KT 10SM CLR 27/25 A3000 RMK AO2 T02800255
KPSN 180315Z AUTO 11004KT 10SM CLR 27/25 A3000 RMK AO2 T02800255
KPSN 180255Z AUTO 10004KT 10SM CLR 27/25 A3000 RMK AO2 T02800256
KPSN 180235Z AUTO 11004KT 10SM CLR 28/25 A3000 RMK AO2 T02810256
KPSN 180215Z AUTO 09004KT 10SM CLR 28/25 A3000 RMK AO2 T02850256
KPSN 180155Z AUTO 09003KT 10SM CLR 28/25 A2999 RMK AO2 T02870255
KPSN 180135Z AUTO 10004KT 10SM CLR 28/25 A2998 RMK AO2 T02910254
KPSN 180115Z AUTO 09003KT 10SM CLR 29/25 A2998 RMK AO2 T02940252
KPSN 180055Z AUTO 08003KT 10SM CLR 30/25 A2998 RMK AO2 T03010252
KPSN 180035Z AUTO 00000KT 10SM CLR 31/25 A2997 RMK AO2 T03100250
KPSN 180015Z AUTO 08004KT 10SM CLR 31/25 A2997 RMK AO2 T03170249
KPSN 172355Z AUTO 11003KT 10SM CLR 32/25 A2997 RMK AO2 T03200248
KPSN 172335Z AUTO 10005KT 10SM CLR 31/24 A2997 RMK AO2 T03180246
KPSN 172315Z AUTO 14004KT 10SM CLR 31/24 A2997 RMK AO2 T03170244
KPSN 172255Z AUTO 14006KT 10SM CLR 32/24 A2996 RMK AO2 T03220245
KPSN 172235Z AUTO 13005KT 10SM CLR 32/25 A2996 RMK AO2 T03210247
KPSN 172215Z AUTO 13004KT 10SM CLR 32/25 A2996 RMK AO2 T03200249
KPSN 172155Z AUTO 14011KT 10SM CLR 32/24 A2997 RMK AO2 T03220245
KPSN 172135Z AUTO 14008KT 10SM CLR 32/24 A2998 RMK AO2 T03270245
KPSN 172115Z AUTO 12006KT 10SM CLR 32/24 A3000 RMK AO2 T03220243
KPSN 172055Z AUTO 11006KT 10SM CLR 32/24 A3000 RMK AO2 T03200243
KPSN 172035Z AUTO 12006KT 10SM CLR 31/23 A3001 RMK AO2 T03110238
KPSN 172015Z AUTO 10007KT 10SM CLR 31/23 A3002 RMK AO2 T03080236
KPSN 171955Z AUTO 10007KT 10SM CLR 30/23 A3003 RMK AO2 T02970236
KPSN 171935Z AUTO 12006KT 10SM CLR 30/23 A3004 RMK AO2 T02970238
KPSN 171915Z AUTO 11009KT 10SM CLR 28/23 A3006 RMK AO2 T02850235
KPSN 171855Z AUTO 13008KT 10SM CLR 27/23 A3006 RMK AO2 T02730231
KPSN 171835Z AUTO 09008KT 10SM CLR 26/22 A3006 RMK AO2 T02620230
KPSN 171815Z AUTO 11006KT 10SM CLR 25/22 A3007 RMK AO2 T02530228
KPSN 171755Z AUTO 09009KT 10SM SCT031 SCT060 BKN110 25/22 A3008 RMK AO2 T02510227
KPSN 171735Z AUTO 07010KT 10SM -RA BKN031 BKN050 OVC090 24/22 A3009 RMK AO2 T02430227
KPSN 171715Z AUTO 03010G19KT 10SM SCT019 SCT024 OVC031 24/22 A3011 RMK AO2 T02450225
KPSN 171655Z AUTO 04012G20KT 10SM SCT019 BKN024 OVC050 24/22 A3012 RMK AO2 T02460225
KPSN 171635Z AUTO 00000KT 10SM SCT024 BKN050 OVC080 30/24 A3009 RMK AO2 T02990246
KPSN 171615Z AUTO 21003KT 10SM SCT024 BKN050 OVC060 29/25 A3008 RMK AO2 T02950250
KPSN 171555Z AUTO 20005KT 10SM SCT024 BKN028 OVC045 29/25 A3008 RMK AO2 T02950248
KPSN 171535Z AUTO 19007KT 10SM SCT022 BKN028 OVC034 29/25 A3008 RMK AO2 T02930250
KPSN 171515Z AUTO 18004KT 10SM SCT022 BKN026 OVC075 28/25 A3007 RMK AO2 T02900253
KPSN 171455Z AUTO 22005KT 10SM BKN022 BKN075 BKN120 28/25 A3006 RMK AO2 T02880254
KPSN 171435Z AUTO 20009KT 10SM SCT019 BKN025 28/25 A3005 RMK AO2 T02850252
KPSN 171415Z AUTO 20006KT 10SM BKN017 OVC024 28/25 A3005 RMK AO2 T02830253
KPSN 171355Z AUTO 21007KT 10SM BKN016 BKN022 28/25 A3005 RMK AO2 T02850254
KPSN 171335Z AUTO 19006KT 10SM SCT016 SCT021 27/25 A3004 RMK AO2 T02800254
KPSN 171315Z AUTO 18008KT 7SM CLR 27/25 A3003 RMK AO2 T02740253
KPSN 171255Z AUTO 19006KT 10SM CLR 27/25 A3003 RMK AO2 T02710252
KPSN 171235Z AUTO 19006KT 10SM CLR 27/25 A3003 RMK AO2 T02700251
KPSN 171215Z AUTO 18007KT 7SM CLR 26/25 A3002 RMK AO2 T02680251
KPSN 171155Z AUTO 18008KT 7SM CLR 26/25 A3000 RMK AO2 T02670251
KPSN 171135Z AUTO 18007KT 10SM SCT018 26/25 A3000 RMK AO2 T02670250
KPSN 171115Z AUTO 18007KT 10SM CLR 26/25 A3000 RMK AO2 T02680250
KPSN 171055Z AUTO 18008KT 10SM CLR 27/25 A3000 RMK AO2 T02700250
KPSN 171035Z AUTO 18009KT 10SM CLR 27/25 A2999 RMK AO2 T02700250
KPSN 171015Z AUTO 18007KT 10SM CLR 27/25 A3000 RMK AO2 T02720250
KPSN 170955Z AUTO 18006KT 10SM CLR 27/25 A3000 RMK AO2 T02700250
KPSN 170935Z AUTO 16005KT 10SM CLR 26/25 A3000 RMK AO2 T02680248
KPSN 170915Z AUTO 16005KT 10SM SCT022 BKN032 27/25 A3000 RMK AO2 T02700247
KPSN 170855Z AUTO 17004KT 10SM SCT021 BKN028 BKN034 27/25 A3001 RMK AO2 T02700247
KPSN 170835Z AUTO 18006KT 10SM SCT019 BKN025 BKN029 27/24 A3000 RMK AO2 T02720246
KPSN 170815Z AUTO 18005KT 10SM SCT020 BKN027 BKN032 27/24 A3000 RMK AO2 T02750245
KPSN 170755Z AUTO 16007KT 10SM BKN027 BKN032 27/24 A3000 RMK AO2 T02750242
KPSN 170735Z AUTO 17006KT 10SM BKN023 27/23 A2999 RMK AO2 T02760241
KPSN 170715Z AUTO 16005KT 10SM SCT021 27/23 A2999 RMK AO2 T02770241
KPSN 170655Z AUTO 16006KT 10SM CLR 27/23 A2999 RMK AO2 T02780240
KPSN 170635Z AUTO 17006KT 10SM CLR 27/23 A2998 RMK AO2 T02800240
KPSN 170615Z AUTO 16007KT 10SM CLR 28/23 A2998 RMK AO2 T02840240
KPSN 170555Z AUTO 16008G16KT 10SM CLR 28/23 A2999 RMK AO2 T02870240
KPSN 170535Z AUTO 17007KT 10SM CLR 28/23 A2998 RMK AO2 T02880241
KPSN 170515Z AUTO 16010G14KT 10SM CLR 28/23 A2997 RMK AO2 T02900241
KPSN 170455Z AUTO 17008KT 10SM CLR 28/24 A2995 RMK AO2 T02910245
KPSN 170435Z AUTO 16008KT 10SM CLR 29/25 A2995 RMK AO2 T02940247
KPSN 170415Z AUTO 16007KT 10SM CLR 29/25 A2995 RMK AO2 T02950249
KPSN 170355Z AUTO 16007KT 10SM CLR 29/25 A2995 RMK AO2 T02960250
KPSN 170335Z AUTO 15007KT 10SM CLR 29/25 A2994 RMK AO2 T02960251
KPSN 170315Z AUTO 15007KT 10SM CLR 30/25 A2994 RMK AO2 T03000250
KPSN 170255Z AUTO 15007KT 10SM CLR 30/25 A2994 RMK AO2 T03020249
KPSN 170235Z AUTO 15008KT 10SM CLR 30/25 A2993 RMK AO2 T03050247
KPSN 170215Z AUTO 14007KT 120V180 10SM CLR 31/24 A2992 RMK AO2 T03100245
KPSN 170155Z AUTO 15008KT 10SM CLR 31/24 A2992 RMK AO2 T03150243
KPSN 170135Z AUTO 13010G15KT 10SM CLR 32/23 A2991 RMK AO2 T03210237
KPSN 170115Z AUTO 13008KT 10SM CLR 32/22 A2990 RMK AO2 T03280226
KPSN 170055Z AUTO 15006KT 10SM CLR 33/22 A2990 RMK AO2 T03340224
KPSN 170035Z AUTO 14005KT 10SM CLR 33/22 A2990 RMK AO2 T03400221
KPSN 170015Z AUTO 15006KT 10SM CLR 34/21 A2990 RMK AO2 T03460213
KPSN 162355Z AUTO 16007KT 10SM SCT065 35/21 A2990 RMK AO2 T03500213
KPSN 162335Z AUTO 16007KT 10SM CLR 35/21 A2990 RMK AO2 T03520211
KPSN 162315Z AUTO 16009G14KT 10SM CLR 35/21 A2990 RMK AO2 T03560210